sensor_id;sensor_type;location;lat;lon;timestamp;pressure;altitude;pressure_sealevel;temperature;humidity
12973;BME280;6551;51.056;9.466;2023-10-08T00:01:32;98111.16;;;17.39;82.66
12973;BME280;6551;51.056;9.466;2023-10-08T00:04:01;98119.72;;;17.36;82.81
12973;BME280;6551;51.056;9.466;2023-10-08T00:06:33;98112.16;;;17.33;83.38
12973;BME280;6551;51.056;9.466;2023-10-08T00:09:02;98117.22;;;17.30;83.44
12973;BME280;6551;51.056;9.466;2023-10-08T00:11:36;98115.59;;;17.29;83.33
12973;BME280;6551;51.056;9.466;2023-10-08T00:14:04;98119.34;;;17.28;83.57
12973;BME280;6551;51.056;9.466;2023-10-08T00:16:47;98112.91;;;17.29;83.47
12973;BME280;6551;51.056;9.466;2023-10-08T00:19:16;98118.31;;;17.29;83.71
12973;BME280;6551;51.056;9.466;2023-10-08T00:21:45;98136.31;;;17.28;83.54
12973;BME280;6551;51.056;9.466;2023-10-08T00:24:13;98137.16;;;17.29;83.43
12973;BME280;6551;51.056;9.466;2023-10-08T00:26:42;98138.75;;;17.30;83.28
12973;BME280;6551;51.056;9.466;2023-10-08T00:29:10;98150.94;;;17.32;83.18
12973;BME280;6551;51.056;9.466;2023-10-08T00:32:08;98142.25;;;17.30;83.49
12973;BME280;6551;51.056;9.466;2023-10-08T00:34:40;98139.06;;;17.33;83.25
12973;BME280;6551;51.056;9.466;2023-10-08T00:37:11;98131.81;;;17.34;83.42
12973;BME280;6551;51.056;9.466;2023-10-08T00:39:47;98138.56;;;17.36;83.05
12973;BME280;6551;51.056;9.466;2023-10-08T00:42:18;98135.88;;;17.36;82.97
12973;BME280;6551;51.056;9.466;2023-10-08T00:44:47;98144.78;;;17.37;83.08
12973;BME280;6551;51.056;9.466;2023-10-08T00:47:19;98136.16;;;17.35;83.22
12973;BME280;6551;51.056;9.466;2023-10-08T00:49:53;98133.69;;;17.33;83.47
12973;BME280;6551;51.056;9.466;2023-10-08T00:52:40;98147.66;;;17.30;83.24
12973;BME280;6551;51.056;9.466;2023-10-08T00:55:13;98149.53;;;17.30;83.45
12973;BME280;6551;51.056;9.466;2023-10-08T00:57:58;98151.66;;;17.28;83.67
12973;BME280;6551;51.056;9.466;2023-10-08T01:00:35;98147.59;;;17.25;84.08
12973;BME280;6551;51.056;9.466;2023-10-08T01:03:08;98148.63;;;17.24;83.82
12973;BME280;6551;51.056;9.466;2023-10-08T01:05:43;98135.19;;;17.24;84.03
12973;BME280;6551;51.056;9.466;2023-10-08T01:08:14;98142.47;;;17.24;83.97
12973;BME280;6551;51.056;9.466;2023-10-08T01:10:47;98152.75;;;17.27;84.04
12973;BME280;6551;51.056;9.466;2023-10-08T01:13:17;98140.06;;;17.27;83.86
12973;BME280;6551;51.056;9.466;2023-10-08T01:15:50;98152.16;;;17.25;84.03
12973;BME280;6551;51.056;9.466;2023-10-08T01:18:19;98148.63;;;17.24;84.15
12973;BME280;6551;51.056;9.466;2023-10-08T01:20:58;98143.19;;;17.19;84.70
12973;BME280;6551;51.056;9.466;2023-10-08T01:23:33;98146.72;;;17.20;84.34
12973;BME280;6551;51.056;9.466;2023-10-08T01:26:00;98157.97;;;17.17;84.48
12973;BME280;6551;51.056;9.466;2023-10-08T01:28:40;98167.41;;;17.19;84.78
12973;BME280;6551;51.056;9.466;2023-10-08T01:31:06;98162.03;;;17.19;84.52
12973;BME280;6551;51.056;9.466;2023-10-08T01:33:36;98169.22;;;17.14;84.94
12973;BME280;6551;51.056;9.466;2023-10-08T01:36:24;98151.97;;;17.10;84.97
12973;BME280;6551;51.056;9.466;2023-10-08T01:38:58;98155.22;;;17.12;85.14
12973;BME280;6551;51.056;9.466;2023-10-08T01:41:28;98164.44;;;17.16;84.75
12973;BME280;6551;51.056;9.466;2023-10-08T01:44:07;98156.34;;;17.16;84.82
12973;BME280;6551;51.056;9.466;2023-10-08T01:46:38;98168.72;;;17.17;84.53
12973;BME280;6551;51.056;9.466;2023-10-08T01:49:09;98169.47;;;17.12;84.50
12973;BME280;6551;51.056;9.466;2023-10-08T01:51:48;98166.47;;;17.09;84.86
12973;BME280;6551;51.056;9.466;2023-10-08T01:54:15;98170.59;;;17.16;84.79
12973;BME280;6551;51.056;9.466;2023-10-08T01:56:45;98162.53;;;17.16;84.75
12973;BME280;6551;51.056;9.466;2023-10-08T01:59:13;98177.28;;;17.14;84.81
12973;BME280;6551;51.056;9.466;2023-10-08T02:01:45;98185.38;;;17.14;85.01
12973;BME280;6551;51.056;9.466;2023-10-08T02:04:15;98189.44;;;17.16;84.85
12973;BME280;6551;51.056;9.466;2023-10-08T02:06:44;98191.34;;;17.16;85.32
12973;BME280;6551;51.056;9.466;2023-10-08T02:09:12;98180.56;;;17.16;85.26
12973;BME280;6551;51.056;9.466;2023-10-08T02:11:50;98185.44;;;17.19;85.10
12973;BME280;6551;51.056;9.466;2023-10-08T02:14:42;98178.19;;;17.19;85.14
12973;BME280;6551;51.056;9.466;2023-10-08T02:17:08;98181.63;;;17.15;85.24
12973;BME280;6551;51.056;9.466;2023-10-08T02:19:36;98189.63;;;17.10;85.50
12973;BME280;6551;51.056;9.466;2023-10-08T02:22:03;98191.72;;;17.08;85.46
12973;BME280;6551;51.056;9.466;2023-10-08T02:24:36;98205.19;;;17.08;85.75
12973;BME280;6551;51.056;9.466;2023-10-08T02:27:05;98211.88;;;17.05;86.09
12973;BME280;6551;51.056;9.466;2023-10-08T02:29:33;98197.63;;;17.05;85.98
12973;BME280;6551;51.056;9.466;2023-10-08T02:32:01;98177.50;;;17.07;86.00
12973;BME280;6551;51.056;9.466;2023-10-08T02:34:51;98173.91;;;17.02;86.20
12973;BME280;6551;51.056;9.466;2023-10-08T02:37:17;98182.16;;;16.95;86.53
12973;BME280;6551;51.056;9.466;2023-10-08T02:39:48;98194.53;;;16.96;86.42
12973;BME280;6551;51.056;9.466;2023-10-08T02:42:15;98208.72;;;16.91;86.67
12973;BME280;6551;51.056;9.466;2023-10-08T02:44:45;98202.78;;;16.89;86.72
12973;BME280;6551;51.056;9.466;2023-10-08T02:47:14;98204.66;;;16.89;86.94
12973;BME280;6551;51.056;9.466;2023-10-08T02:49:44;98218.66;;;16.91;86.74
12973;BME280;6551;51.056;9.466;2023-10-08T02:52:11;98207.91;;;16.91;86.62
12973;BME280;6551;51.056;9.466;2023-10-08T02:54:40;98219.81;;;16.95;86.55
12973;BME280;6551;51.056;9.466;2023-10-08T02:57:06;98211.47;;;16.96;86.66
12973;BME280;6551;51.056;9.466;2023-10-08T02:59:43;98204.50;;;16.95;87.08
12973;BME280;6551;51.056;9.466;2023-10-08T03:02:14;98204.50;;;16.95;87.10
12973;BME280;6551;51.056;9.466;2023-10-08T03:05:00;98196.91;;;16.92;86.99
12973;BME280;6551;51.056;9.466;2023-10-08T03:07:28;98197.41;;;16.89;87.31
12973;BME280;6551;51.056;9.466;2023-10-08T03:09:59;98197.31;;;16.84;87.50
12973;BME280;6551;51.056;9.466;2023-10-08T03:12:46;98184.91;;;16.83;87.65
12973;BME280;6551;51.056;9.466;2023-10-08T03:15:36;98172.22;;;16.79;88.01
12973;BME280;6551;51.056;9.466;2023-10-08T03:18:14;98166.09;;;16.83;87.62
12973;BME280;6551;51.056;9.466;2023-10-08T03:20:42;98169.69;;;16.89;87.59
12973;BME280;6551;51.056;9.466;2023-10-08T03:23:12;98168.06;;;16.88;87.64
12973;BME280;6551;51.056;9.466;2023-10-08T03:25:39;98166.44;;;16.87;87.77
12973;BME280;6551;51.056;9.466;2023-10-08T03:28:15;98170.75;;;16.88;87.88
12973;BME280;6551;51.056;9.466;2023-10-08T03:30:44;98176.94;;;16.88;87.88
12973;BME280;6551;51.056;9.466;2023-10-08T03:33:25;98152.97;;;16.87;88.03
12973;BME280;6551;51.056;9.466;2023-10-08T03:35:53;98151.09;;;16.87;87.61
12973;BME280;6551;51.056;9.466;2023-10-08T03:38:25;98157.03;;;16.89;87.70
12973;BME280;6551;51.056;9.466;2023-10-08T03:41:28;98158.19;;;16.93;87.48
12973;BME280;6551;51.056;9.466;2023-10-08T03:43:57;98176.75;;;16.95;87.45
12973;BME280;6551;51.056;9.466;2023-10-08T03:46:39;98199.34;;;16.94;87.81
12973;BME280;6551;51.056;9.466;2023-10-08T03:49:10;98200.41;;;16.93;87.89
12973;BME280;6551;51.056;9.466;2023-10-08T03:52:07;98193.66;;;16.90;87.45
12973;BME280;6551;51.056;9.466;2023-10-08T03:54:36;98195.03;;;16.93;87.34
12973;BME280;6551;51.056;9.466;2023-10-08T03:57:11;98185.88;;;16.94;87.21
12973;BME280;6551;51.056;9.466;2023-10-08T03:59:54;98155.66;;;16.87;88.78
12973;BME280;6551;51.056;9.466;2023-10-08T04:02:26;98136.56;;;16.88;88.04
12973;BME280;6551;51.056;9.466;2023-10-08T04:05:14;98129.19;;;16.79;89.03
12973;BME280;6551;51.056;9.466;2023-10-08T04:07:55;98139.00;;;16.68;88.87
12973;BME280;6551;51.056;9.466;2023-10-08T04:10:41;98150.72;;;16.62;88.61
12973;BME280;6551;51.056;9.466;2023-10-08T04:13:08;98164.09;;;16.57;89.23
12973;BME280;6551;51.056;9.466;2023-10-08T04:15:39;98150.19;;;16.49;89.49
12973;BME280;6551;51.056;9.466;2023-10-08T04:18:11;98123.06;;;16.33;90.06
12973;BME280;6551;51.056;9.466;2023-10-08T04:20:40;98128.69;;;16.32;90.27
12973;BME280;6551;51.056;9.466;2023-10-08T04:23:26;98147.72;;;16.30;90.51
12973;BME280;6551;51.056;9.466;2023-10-08T04:25:56;98164.75;;;16.36;90.58
12973;BME280;6551;51.056;9.466;2023-10-08T04:28:23;98159.22;;;16.26;91.49
12973;BME280;6551;51.056;9.466;2023-10-08T04:31:08;98178.44;;;16.18;91.88
12973;BME280;6551;51.056;9.466;2023-10-08T04:33:44;98212.06;;;16.20;92.06
12973;BME280;6551;51.056;9.466;2023-10-08T04:36:19;98209.13;;;16.22;92.28
12973;BME280;6551;51.056;9.466;2023-10-08T04:38:48;98177.00;;;16.27;92.39
12973;BME280;6551;51.056;9.466;2023-10-08T04:41:28;98198.22;;;16.28;93.00
12973;BME280;6551;51.056;9.466;2023-10-08T04:43:55;98235.84;;;16.28;93.33
12973;BME280;6551;51.056;9.466;2023-10-08T04:46:22;98207.03;;;16.24;92.89
12973;BME280;6551;51.056;9.466;2023-10-08T04:49:24;98215.19;;;16.29;92.00
12973;BME280;6551;51.056;9.466;2023-10-08T04:52:05;98196.38;;;16.29;91.87
12973;BME280;6551;51.056;9.466;2023-10-08T04:54:42;98180.81;;;16.31;91.66
12973;BME280;6551;51.056;9.466;2023-10-08T04:57:23;98203.22;;;16.36;91.62
12973;BME280;6551;51.056;9.466;2023-10-08T04:59:52;98223.56;;;16.32;91.82
12973;BME280;6551;51.056;9.466;2023-10-08T05:02:35;98202.56;;;16.29;92.57
12973;BME280;6551;51.056;9.466;2023-10-08T05:05:22;98245.56;;;16.29;93.14
12973;BME280;6551;51.056;9.466;2023-10-08T05:07:49;98223.56;;;16.32;93.07
12973;BME280;6551;51.056;9.466;2023-10-08T05:10:19;98275.25;;;16.23;93.37
12973;BME280;6551;51.056;9.466;2023-10-08T05:13:12;98245.81;;;16.16;93.45
12973;BME280;6551;51.056;9.466;2023-10-08T05:15:44;98204.47;;;16.17;93.57
12973;BME280;6551;51.056;9.466;2023-10-08T05:18:29;98178.66;;;16.16;93.21
12973;BME280;6551;51.056;9.466;2023-10-08T05:21:28;98164.75;;;16.19;93.40
12973;BME280;6551;51.056;9.466;2023-10-08T05:24:07;98147.97;;;16.12;93.60
12973;BME280;6551;51.056;9.466;2023-10-08T05:27:00;98156.44;;;16.04;94.30
12973;BME280;6551;51.056;9.466;2023-10-08T05:29:46;98159.88;;;15.88;94.48
12973;BME280;6551;51.056;9.466;2023-10-08T05:32:37;98201.09;;;15.94;94.62
12973;BME280;6551;51.056;9.466;2023-10-08T05:35:11;98218.34;;;15.98;94.72
12973;BME280;6551;51.056;9.466;2023-10-08T05:38:03;98239.69;;;16.04;94.32
12973;BME280;6551;51.056;9.466;2023-10-08T05:40:53;98246.91;;;16.15;94.11
12973;BME280;6551;51.056;9.466;2023-10-08T05:43:34;98245.34;;;16.19;94.32
12973;BME280;6551;51.056;9.466;2023-10-08T05:46:14;98244.78;;;16.17;94.20
12973;BME280;6551;51.056;9.466;2023-10-08T05:48:59;98225.72;;;16.19;93.87
12973;BME280;6551;51.056;9.466;2023-10-08T05:51:30;98230.41;;;16.23;93.38
12973;BME280;6551;51.056;9.466;2023-10-08T05:54:24;98250.50;;;16.21;93.33
12973;BME280;6551;51.056;9.466;2023-10-08T05:57:09;98272.31;;;16.24;93.46
12973;BME280;6551;51.056;9.466;2023-10-08T05:59:57;98268.84;;;16.24;93.10
12973;BME280;6551;51.056;9.466;2023-10-08T06:02:31;98264.84;;;16.26;93.07
12973;BME280;6551;51.056;9.466;2023-10-08T06:05:11;98284.31;;;16.33;92.76
12973;BME280;6551;51.056;9.466;2023-10-08T06:08:04;98281.00;;;16.55;90.99
12973;BME280;6551;51.056;9.466;2023-10-08T06:11:02;98298.63;;;16.79;90.20
12973;BME280;6551;51.056;9.466;2023-10-08T06:13:44;98304.25;;;16.94;89.37
12973;BME280;6551;51.056;9.466;2023-10-08T06:16:12;98329.38;;;17.00;89.01
12973;BME280;6551;51.056;9.466;2023-10-08T06:18:59;98322.94;;;17.01;87.48
12973;BME280;6551;51.056;9.466;2023-10-08T06:21:26;98329.38;;;17.00;87.16
12973;BME280;6551;51.056;9.466;2023-10-08T06:23:55;98344.03;;;16.92;87.01
12973;BME280;6551;51.056;9.466;2023-10-08T06:26:23;98348.88;;;16.90;86.42
12973;BME280;6551;51.056;9.466;2023-10-08T06:28:53;98362.88;;;16.92;86.38
12973;BME280;6551;51.056;9.466;2023-10-08T06:31:25;98387.22;;;16.85;86.27
12973;BME280;6551;51.056;9.466;2023-10-08T06:33:53;98396.66;;;16.71;86.90
12973;BME280;6551;51.056;9.466;2023-10-08T06:36:22;98367.22;;;16.65;86.53
12973;BME280;6551;51.056;9.466;2023-10-08T06:38:52;98352.72;;;16.66;86.21
12973;BME280;6551;51.056;9.466;2023-10-08T06:41:20;98306.84;;;16.72;86.06
12973;BME280;6551;51.056;9.466;2023-10-08T06:43:57;98301.31;;;16.79;85.53
12973;BME280;6551;51.056;9.466;2023-10-08T06:46:31;98318.59;;;16.83;84.99
12973;BME280;6551;51.056;9.466;2023-10-08T06:49:06;98321.13;;;16.89;84.89
12973;BME280;6551;51.056;9.466;2023-10-08T06:51:43;98317.47;;;16.95;85.07
12973;BME280;6551;51.056;9.466;2023-10-08T06:54:11;98337.22;;;17.01;84.49
12973;BME280;6551;51.056;9.466;2023-10-08T06:56:40;98327.84;;;17.04;83.93
12973;BME280;6551;51.056;9.466;2023-10-08T06:59:14;98325.97;;;17.04;83.78
12973;BME280;6551;51.056;9.466;2023-10-08T07:01:43;98328.75;;;17.09;83.63
12973;BME280;6551;51.056;9.466;2023-10-08T07:04:13;98327.09;;;17.08;83.44
12973;BME280;6551;51.056;9.466;2023-10-08T07:06:42;98337.03;;;17.08;83.16
12973;BME280;6551;51.056;9.466;2023-10-08T07:09:16;98345.91;;;16.91;83.08
12973;BME280;6551;51.056;9.466;2023-10-08T07:11:58;98368.91;;;16.82;83.41
12973;BME280;6551;51.056;9.466;2023-10-08T07:14:33;98379.84;;;16.64;84.27
12973;BME280;6551;51.056;9.466;2023-10-08T07:17:00;98378.09;;;16.58;85.08
12973;BME280;6551;51.056;9.466;2023-10-08T07:19:34;98381.63;;;16.59;84.78
12973;BME280;6551;51.056;9.466;2023-10-08T07:22:14;98399.88;;;16.57;85.18
12973;BME280;6551;51.056;9.466;2023-10-08T07:24:46;98405.34;;;16.50;84.48
12973;BME280;6551;51.056;9.466;2023-10-08T07:27:21;98421.41;;;16.33;84.96
12973;BME280;6551;51.056;9.466;2023-10-08T07:30:00;98435.09;;;16.32;85.53
12973;BME280;6551;51.056;9.466;2023-10-08T07:32:30;98443.25;;;16.25;86.17
12973;BME280;6551;51.056;9.466;2023-10-08T07:34:58;98443.50;;;16.24;85.08
12973;BME280;6551;51.056;9.466;2023-10-08T07:37:41;98431.38;;;16.21;85.41
12973;BME280;6551;51.056;9.466;2023-10-08T07:40:11;98449.34;;;16.21;84.77
12973;BME280;6551;51.056;9.466;2023-10-08T07:42:42;98448.75;;;16.19;84.88
12973;BME280;6551;51.056;9.466;2023-10-08T07:45:12;98447.59;;;16.15;84.15
12973;BME280;6551;51.056;9.466;2023-10-08T07:47:44;98442.44;;;16.13;83.84
12973;BME280;6551;51.056;9.466;2023-10-08T07:50:11;98448.63;;;16.14;84.16
12973;BME280;6551;51.056;9.466;2023-10-08T07:52:39;98458.25;;;16.21;83.76
12973;BME280;6551;51.056;9.466;2023-10-08T07:55:13;98475.50;;;16.25;83.50
12973;BME280;6551;51.056;9.466;2023-10-08T07:57:49;98479.94;;;16.20;82.35
12973;BME280;6551;51.056;9.466;2023-10-08T08:00:18;98479.47;;;16.11;82.04
12973;BME280;6551;51.056;9.466;2023-10-08T08:02:49;98501.91;;;16.17;82.65
12973;BME280;6551;51.056;9.466;2023-10-08T08:05:17;98506.13;;;16.13;81.60
12973;BME280;6551;51.056;9.466;2023-10-08T08:07:45;98504.25;;;16.13;81.68
12973;BME280;6551;51.056;9.466;2023-10-08T08:10:14;98501.81;;;16.12;82.01
12973;BME280;6551;51.056;9.466;2023-10-08T08:13:04;98494.78;;;16.11;82.18
12973;BME280;6551;51.056;9.466;2023-10-08T08:15:40;98512.81;;;16.10;80.87
12973;BME280;6551;51.056;9.466;2023-10-08T08:18:09;98497.94;;;16.08;81.24
12973;BME280;6551;51.056;9.466;2023-10-08T08:20:46;98492.34;;;16.09;80.69
12973;BME280;6551;51.056;9.466;2023-10-08T08:23:16;98522.69;;;15.98;80.82
12973;BME280;6551;51.056;9.466;2023-10-08T08:25:45;98530.84;;;15.92;80.77
12973;BME280;6551;51.056;9.466;2023-10-08T08:28:31;98534.47;;;15.86;81.71
12973;BME280;6551;51.056;9.466;2023-10-08T08:31:07;98534.84;;;15.89;81.68
12973;BME280;6551;51.056;9.466;2023-10-08T08:33:41;98540.19;;;15.89;82.29
12973;BME280;6551;51.056;9.466;2023-10-08T08:36:30;98537.28;;;15.79;80.46
12973;BME280;6551;51.056;9.466;2023-10-08T08:39:07;98538.88;;;15.80;81.97
12973;BME280;6551;51.056;9.466;2023-10-08T08:41:40;98527.56;;;15.78;81.40
12973;BME280;6551;51.056;9.466;2023-10-08T08:44:08;98527.81;;;15.76;81.77
12973;BME280;6551;51.056;9.466;2023-10-08T08:46:37;98517.75;;;15.72;80.93
12973;BME280;6551;51.056;9.466;2023-10-08T08:49:07;98519.28;;;15.68;81.06
12973;BME280;6551;51.056;9.466;2023-10-08T08:51:35;98532.13;;;15.66;81.80
12973;BME280;6551;51.056;9.466;2023-10-08T08:54:05;98538.88;;;15.68;81.89
12973;BME280;6551;51.056;9.466;2023-10-08T08:56:41;98551.16;;;15.76;82.81
12973;BME280;6551;51.056;9.466;2023-10-08T08:59:11;98556.78;;;15.86;83.05
12973;BME280;6551;51.056;9.466;2023-10-08T09:01:39;98564.50;;;15.83;81.42
12973;BME280;6551;51.056;9.466;2023-10-08T09:04:09;98570.09;;;15.81;80.92
12973;BME280;6551;51.056;9.466;2023-10-08T09:06:38;98570.75;;;15.65;78.58
12973;BME280;6551;51.056;9.466;2023-10-08T09:09:04;98569.22;;;15.57;79.65
12973;BME280;6551;51.056;9.466;2023-10-08T09:11:53;98561.50;;;15.61;80.22
12973;BME280;6551;51.056;9.466;2023-10-08T09:14:29;98552.72;;;15.54;77.56
12973;BME280;6551;51.056;9.466;2023-10-08T09:17:00;98556.56;;;15.46;76.06
12973;BME280;6551;51.056;9.466;2023-10-08T09:19:29;98543.78;;;15.42;76.85
12973;BME280;6551;51.056;9.466;2023-10-08T09:22:11;98549.72;;;15.44;78.64
12973;BME280;6551;51.056;9.466;2023-10-08T09:24:42;98557.38;;;15.29;74.41
12973;BME280;6551;51.056;9.466;2023-10-08T09:27:10;98565.34;;;15.35;78.94
12973;BME280;6551;51.056;9.466;2023-10-08T09:30:05;98577.63;;;15.43;78.39
12973;BME280;6551;51.056;9.466;2023-10-08T09:32:39;98593.03;;;15.65;80.44
12973;BME280;6551;51.056;9.466;2023-10-08T09:35:09;98609.66;;;15.86;78.73
12973;BME280;6551;51.056;9.466;2023-10-08T09:37:45;98615.94;;;16.09;79.22
12973;BME280;6551;51.056;9.466;2023-10-08T09:40:13;98617.84;;;16.32;79.97
12973;BME280;6551;51.056;9.466;2023-10-08T09:42:47;98621.41;;;16.56;80.38
12973;BME280;6551;51.056;9.466;2023-10-08T09:45:17;98622.09;;;16.74;78.88
12973;BME280;6551;51.056;9.466;2023-10-08T09:47:55;98619.50;;;16.91;77.65
12973;BME280;6551;51.056;9.466;2023-10-08T09:50:38;98620.44;;;16.96;76.00
12973;BME280;6551;51.056;9.466;2023-10-08T09:53:15;98633.88;;;17.08;75.71
12973;BME280;6551;51.056;9.466;2023-10-08T09:55:59;98635.03;;;17.24;77.49
12973;BME280;6551;51.056;9.466;2023-10-08T09:58:35;98625.88;;;17.36;76.56
12973;BME280;6551;51.056;9.466;2023-10-08T10:01:02;98628.44;;;17.43;75.57
12973;BME280;6551;51.056;9.466;2023-10-08T10:03:37;98627.22;;;17.50;75.79
12973;BME280;6551;51.056;9.466;2023-10-08T10:06:12;98625.75;;;17.55;72.92
12973;BME280;6551;51.056;9.466;2023-10-08T10:08:42;98634.00;;;17.65;74.42
12973;BME280;6551;51.056;9.466;2023-10-08T10:11:11;98649.25;;;17.59;72.33
12973;BME280;6551;51.056;9.466;2023-10-08T10:13:50;98665.75;;;17.51;73.35
12973;BME280;6551;51.056;9.466;2023-10-08T10:16:36;98668.34;;;17.46;74.00
12973;BME280;6551;51.056;9.466;2023-10-08T10:19:06;98672.34;;;17.43;73.26
12973;BME280;6551;51.056;9.466;2023-10-08T10:21:34;98676.19;;;17.47;74.98
12973;BME280;6551;51.056;9.466;2023-10-08T10:24:05;98666.81;;;17.50;74.17
12973;BME280;6551;51.056;9.466;2023-10-08T10:26:51;98654.16;;;17.50;73.19
12973;BME280;6551;51.056;9.466;2023-10-08T10:29:22;98630.88;;;17.56;73.09
12973;BME280;6551;51.056;9.466;2023-10-08T10:31:54;98597.66;;;17.39;66.75
12973;BME280;6551;51.056;9.466;2023-10-08T10:34:30;98574.66;;;17.20;69.73
12973;BME280;6551;51.056;9.466;2023-10-08T10:36:59;98588.16;;;16.96;68.28
12973;BME280;6551;51.056;9.466;2023-10-08T10:39:30;98602.09;;;16.93;68.34
12973;BME280;6551;51.056;9.466;2023-10-08T10:42:03;98608.78;;;16.79;71.97
12973;BME280;6551;51.056;9.466;2023-10-08T10:44:34;98612.81;;;16.47;70.00
12973;BME280;6551;51.056;9.466;2023-10-08T10:47:05;98623.34;;;16.37;74.13
12973;BME280;6551;51.056;9.466;2023-10-08T10:49:52;98627.66;;;16.50;74.63
12973;BME280;6551;51.056;9.466;2023-10-08T10:52:24;98636.59;;;16.73;75.68
12973;BME280;6551;51.056;9.466;2023-10-08T10:55:09;98648.28;;;17.02;75.01
12973;BME280;6551;51.056;9.466;2023-10-08T10:57:59;98654.09;;;17.22;71.80
12973;BME280;6551;51.056;9.466;2023-10-08T11:00:59;98661.78;;;17.42;70.01
12973;BME280;6551;51.056;9.466;2023-10-08T11:03:32;98670.63;;;17.14;65.04
12973;BME280;6551;51.056;9.466;2023-10-08T11:06:02;98666.53;;;16.88;66.08
12973;BME280;6551;51.056;9.466;2023-10-08T11:08:42;98663.50;;;16.73;69.77
12973;BME280;6551;51.056;9.466;2023-10-08T11:11:12;98665.97;;;16.86;72.05
12973;BME280;6551;51.056;9.466;2023-10-08T11:13:45;98663.94;;;17.05;72.36
12973;BME280;6551;51.056;9.466;2023-10-08T11:16:35;98661.16;;;16.88;66.17
12973;BME280;6551;51.056;9.466;2023-10-08T11:19:08;98655.31;;;16.68;69.87
12973;BME280;6551;51.056;9.466;2023-10-08T11:21:56;98653.94;;;16.66;71.57
12973;BME280;6551;51.056;9.466;2023-10-08T11:24:33;98649.81;;;16.75;73.67
12973;BME280;6551;51.056;9.466;2023-10-08T11:27:05;98654.84;;;16.94;73.46
12973;BME280;6551;51.056;9.466;2023-10-08T11:29:57;98649.44;;;17.06;70.85
12973;BME280;6551;51.056;9.466;2023-10-08T11:32:38;98650.50;;;17.05;67.92
12973;BME280;6551;51.056;9.466;2023-10-08T11:35:22;98656.00;;;17.10;70.27
12973;BME280;6551;51.056;9.466;2023-10-08T11:37:49;98649.91;;;17.15;69.91
12973;BME280;6551;51.056;9.466;2023-10-08T11:40:27;98636.47;;;17.15;69.42
12973;BME280;6551;51.056;9.466;2023-10-08T11:43:01;98634.59;;;17.15;72.96
12973;BME280;6551;51.056;9.466;2023-10-08T11:45:32;98631.19;;;17.20;70.83
12973;BME280;6551;51.056;9.466;2023-10-08T11:48:08;98635.41;;;17.16;69.57
12973;BME280;6551;51.056;9.466;2023-10-08T11:50:39;98636.63;;;17.36;71.59
12973;BME280;6551;51.056;9.466;2023-10-08T11:53:07;98630.78;;;17.39;67.45
12973;BME280;6551;51.056;9.466;2023-10-08T11:55:39;98623.66;;;17.33;71.06
12973;BME280;6551;51.056;9.466;2023-10-08T11:58:07;98621.88;;;17.39;71.05
12973;BME280;6551;51.056;9.466;2023-10-08T12:00:43;98619.72;;;17.52;69.62
12973;BME280;6551;51.056;9.466;2023-10-08T12:03:12;98615.63;;;17.62;67.83
12973;BME280;6551;51.056;9.466;2023-10-08T12:06:03;98620.94;;;17.85;68.94
12973;BME280;6551;51.056;9.466;2023-10-08T12:08:35;98608.53;;;18.00;68.40
12973;BME280;6551;51.056;9.466;2023-10-08T12:11:08;98609.72;;;18.21;70.18
12973;BME280;6551;51.056;9.466;2023-10-08T12:13:42;98603.84;;;18.24;64.86
12973;BME280;6551;51.056;9.466;2023-10-08T12:16:16;98613.88;;;18.12;62.49
12973;BME280;6551;51.056;9.466;2023-10-08T12:18:50;98608.97;;;18.09;69.01
12973;BME280;6551;51.056;9.466;2023-10-08T12:21:21;98596.69;;;18.01;67.02
12973;BME280;6551;51.056;9.466;2023-10-08T12:23:50;98607.13;;;17.81;61.38
12973;BME280;6551;51.056;9.466;2023-10-08T12:26:20;98612.06;;;17.73;67.29
12973;BME280;6551;51.056;9.466;2023-10-08T12:28:49;98610.63;;;17.42;61.90
12973;BME280;6551;51.056;9.466;2023-10-08T12:31:20;98611.97;;;17.16;63.67
12973;BME280;6551;51.056;9.466;2023-10-08T12:34:00;98622.66;;;17.11;66.64
12973;BME280;6551;51.056;9.466;2023-10-08T12:36:31;98616.91;;;17.08;63.94
12973;BME280;6551;51.056;9.466;2023-10-08T12:39:05;98620.19;;;17.21;69.09
12973;BME280;6551;51.056;9.466;2023-10-08T12:41:44;98614.47;;;17.06;60.50
12973;BME280;6551;51.056;9.466;2023-10-08T12:44:12;98608.16;;;17.01;64.99
12973;BME280;6551;51.056;9.466;2023-10-08T12:46:40;98611.06;;;17.11;67.49
12973;BME280;6551;51.056;9.466;2023-10-08T12:49:12;98600.09;;;16.89;59.49
12973;BME280;6551;51.056;9.466;2023-10-08T12:51:40;98603.75;;;16.60;59.23
12973;BME280;6551;51.056;9.466;2023-10-08T12:54:12;98598.22;;;16.31;62.07
12973;BME280;6551;51.056;9.466;2023-10-08T12:56:52;98585.56;;;16.09;62.03
12973;BME280;6551;51.056;9.466;2023-10-08T12:59:21;98586.81;;;15.95;64.48
12973;BME280;6551;51.056;9.466;2023-10-08T13:01:52;98592.88;;;15.90;65.31
12973;BME280;6551;51.056;9.466;2023-10-08T13:04:24;98588.63;;;15.71;62.65
12973;BME280;6551;51.056;9.466;2023-10-08T13:07:21;98591.03;;;15.91;68.77
12973;BME280;6551;51.056;9.466;2023-10-08T13:09:52;98587.66;;;16.07;65.00
12973;BME280;6551;51.056;9.466;2023-10-08T13:12:19;98590.84;;;16.27;66.36
12973;BME280;6551;51.056;9.466;2023-10-08T13:14:48;98594.88;;;16.59;69.63
12973;BME280;6551;51.056;9.466;2023-10-08T13:17:16;98588.06;;;16.80;68.02
12973;BME280;6551;51.056;9.466;2023-10-08T13:19:47;98599.25;;;17.00;67.89
12973;BME280;6551;51.056;9.466;2023-10-08T13:22:13;98589.66;;;17.16;65.13
12973;BME280;6551;51.056;9.466;2023-10-08T13:24:51;98589.28;;;17.24;64.87
12973;BME280;6551;51.056;9.466;2023-10-08T13:27:18;98581.41;;;17.34;64.51
12973;BME280;6551;51.056;9.466;2023-10-08T13:29:47;98578.50;;;17.24;59.13
12973;BME280;6551;51.056;9.466;2023-10-08T13:32:14;98568.53;;;17.24;61.60
12973;BME280;6551;51.056;9.466;2023-10-08T13:34:45;98567.03;;;17.17;58.59
12973;BME280;6551;51.056;9.466;2023-10-08T13:37:14;98570.09;;;17.20;62.89
12973;BME280;6551;51.056;9.466;2023-10-08T13:39:44;98565.75;;;17.19;63.63
12973;BME280;6551;51.056;9.466;2023-10-08T13:42:12;98567.13;;;17.33;65.07
12973;BME280;6551;51.056;9.466;2023-10-08T13:44:47;98563.28;;;17.29;61.52
12973;BME280;6551;51.056;9.466;2023-10-08T13:47:17;98560.59;;;17.29;62.11
12973;BME280;6551;51.056;9.466;2023-10-08T13:49:56;98559.53;;;17.19;60.93